sensor_id;sensor_type;location;lat;lon;timestamp;P1;durP1;ratioP1;P2;durP2;ratioP2
82900;SDS011;72673;50.822;3.280;2024-03-25T00:01:36;24.02;;;7.25;;
82900;SDS011;72673;50.822;3.280;2024-03-25T00:04:01;27.52;;;7.78;;
82900;SDS011;72673;50.822;3.280;2024-03-25T00:06:27;22.55;;;6.40;;
82900;SDS011;72673;50.822;3.280;2024-03-25T00:08:52;21.30;;;7.00;;
82900;SDS011;72673;50.822;3.280;2024-03-25T00:11:18;25.77;;;7.15;;
82900;SDS011;72673;50.822;3.280;2024-03-25T00:13:44;25.15;;;6.65;;
82900;SDS011;72673;50.822;3.280;2024-03-25T00:16:10;20.67;;;6.63;;
82900;SDS011;72673;50.822;3.280;2024-03-25T00:18:35;33.58;;;7.10;;
82900;SDS011;72673;50.822;3.280;2024-03-25T00:21:01;24.40;;;6.78;;
82900;SDS011;72673;50.822;3.280;2024-03-25T00:23:27;30.42;;;6.63;;
82900;SDS011;72673;50.822;3.280;2024-03-25T00:25:52;26.35;;;7.57;;
82900;SDS011;72673;50.822;3.280;2024-03-25T00:28:18;34.22;;;6.75;;
82900;SDS011;72673;50.822;3.280;2024-03-25T00:30:44;27.60;;;7.22;;
82900;SDS011;72673;50.822;3.280;2024-03-25T00:33:10;24.52;;;7.13;;
82900;SDS011;72673;50.822;3.280;2024-03-25T00:35:36;22.20;;;6.20;;
82900;SDS011;72673;50.822;3.280;2024-03-25T00:38:02;19.83;;;6.57;;
82900;SDS011;72673;50.822;3.280;2024-03-25T00:40:29;25.33;;;6.75;;
82900;SDS011;72673;50.822;3.280;2024-03-25T00:42:54;24.13;;;6.43;;
82900;SDS011;72673;50.822;3.280;2024-03-25T00:45:20;32.35;;;6.82;;
82900;SDS011;72673;50.822;3.280;2024-03-25T00:47:46;32.22;;;7.60;;
82900;SDS011;72673;50.822;3.280;2024-03-25T00:50:11;20.55;;;6.07;;
82900;SDS011;72673;50.822;3.280;2024-03-25T00:52:37;25.75;;;7.13;;
82900;SDS011;72673;50.822;3.280;2024-03-25T00:55:03;23.92;;;6.50;;
82900;SDS011;72673;50.822;3.280;2024-03-25T00:57:29;32.47;;;6.75;;
82900;SDS011;72673;50.822;3.280;2024-03-25T00:59:55;27.27;;;6.38;;
82900;SDS011;72673;50.822;3.280;2024-03-25T01:02:21;27.50;;;5.72;;
82900;SDS011;72673;50.822;3.280;2024-03-25T01:04:46;22.02;;;5.88;;
82900;SDS011;72673;50.822;3.280;2024-03-25T01:07:12;30.58;;;6.72;;
82900;SDS011;72673;50.822;3.280;2024-03-25T01:09:38;39.45;;;9.07;;
82900;SDS011;72673;50.822;3.280;2024-03-25T01:12:04;28.75;;;8.18;;
82900;SDS011;72673;50.822;3.280;2024-03-25T01:14:30;30.92;;;6.55;;
82900;SDS011;72673;50.822;3.280;2024-03-25T01:16:55;26.42;;;6.60;;
82900;SDS011;72673;50.822;3.280;2024-03-25T01:19:21;25.30;;;6.03;;
82900;SDS011;72673;50.822;3.280;2024-03-25T01:21:47;26.55;;;6.10;;
82900;SDS011;72673;50.822;3.280;2024-03-25T01:24:12;30.48;;;6.40;;
82900;SDS011;72673;50.822;3.280;2024-03-25T01:26:39;23.77;;;6.80;;
82900;SDS011;72673;50.822;3.280;2024-03-25T01:29:05;29.08;;;6.97;;
82900;SDS011;72673;50.822;3.280;2024-03-25T01:31:31;29.80;;;5.82;;
82900;SDS011;72673;50.822;3.280;2024-03-25T01:33:56;31.10;;;5.55;;
82900;SDS011;72673;50.822;3.280;2024-03-25T01:36:22;26.08;;;5.80;;
82900;SDS011;72673;50.822;3.280;2024-03-25T01:38:48;26.65;;;5.50;;
82900;SDS011;72673;50.822;3.280;2024-03-25T01:41:13;20.48;;;5.93;;
82900;SDS011;72673;50.822;3.280;2024-03-25T01:43:42;28.15;;;6.32;;
82900;SDS011;72673;50.822;3.280;2024-03-25T01:46:07;26.90;;;5.88;;
82900;SDS011;72673;50.822;3.280;2024-03-25T01:48:34;30.42;;;6.35;;
82900;SDS011;72673;50.822;3.280;2024-03-25T01:51:00;23.27;;;6.13;;
82900;SDS011;72673;50.822;3.280;2024-03-25T01:53:27;32.85;;;5.97;;
82900;SDS011;72673;50.822;3.280;2024-03-25T01:55:55;30.65;;;5.40;;
82900;SDS011;72673;50.822;3.280;2024-03-25T01:58:22;32.85;;;5.85;;
82900;SDS011;72673;50.822;3.280;2024-03-25T02:00:49;28.98;;;5.68;;
82900;SDS011;72673;50.822;3.280;2024-03-25T02:03:16;25.38;;;5.97;;
82900;SDS011;72673;50.822;3.280;2024-03-25T02:05:42;19.88;;;5.60;;
82900;SDS011;72673;50.822;3.280;2024-03-25T02:08:09;25.90;;;5.50;;
82900;SDS011;72673;50.822;3.280;2024-03-25T02:10:35;25.60;;;6.70;;
82900;SDS011;72673;50.822;3.280;2024-03-25T02:13:02;32.17;;;6.70;;
82900;SDS011;72673;50.822;3.280;2024-03-25T02:15:28;22.95;;;6.70;;
82900;SDS011;72673;50.822;3.280;2024-03-25T02:17:54;27.38;;;6.35;;
82900;SDS011;72673;50.822;3.280;2024-03-25T02:20:20;29.63;;;5.47;;
82900;SDS011;72673;50.822;3.280;2024-03-25T02:22:46;29.52;;;6.43;;
82900;SDS011;72673;50.822;3.280;2024-03-25T02:25:12;29.90;;;6.40;;
82900;SDS011;72673;50.822;3.280;2024-03-25T02:27:41;23.45;;;6.53;;
82900;SDS011;72673;50.822;3.280;2024-03-25T02:30:10;28.88;;;7.03;;
82900;SDS011;72673;50.822;3.280;2024-03-25T02:32:40;29.10;;;6.20;;
82900;SDS011;72673;50.822;3.280;2024-03-25T02:35:10;18.58;;;6.30;;
82900;SDS011;72673;50.822;3.280;2024-03-25T02:37:40;28.63;;;7.07;;
82900;SDS011;72673;50.822;3.280;2024-03-25T02:40:06;24.13;;;6.03;;
82900;SDS011;72673;50.822;3.280;2024-03-25T02:42:34;28.77;;;6.20;;
82900;SDS011;72673;50.822;3.280;2024-03-25T02:45:01;24.58;;;6.35;;
82900;SDS011;72673;50.822;3.280;2024-03-25T02:47:27;21.48;;;6.40;;
82900;SDS011;72673;50.822;3.280;2024-03-25T02:49:53;21.27;;;6.22;;
82900;SDS011;72673;50.822;3.280;2024-03-25T02:52:19;30.08;;;6.40;;
82900;SDS011;72673;50.822;3.280;2024-03-25T02:54:45;28.88;;;5.82;;
82900;SDS011;72673;50.822;3.280;2024-03-25T02:57:11;25.60;;;6.72;;
82900;SDS011;72673;50.822;3.280;2024-03-25T02:59:36;29.52;;;7.18;;
82900;SDS011;72673;50.822;3.280;2024-03-25T03:02:02;24.60;;;6.50;;
82900;SDS011;72673;50.822;3.280;2024-03-25T03:04:28;28.08;;;6.90;;
82900;SDS011;72673;50.822;3.280;2024-03-25T03:06:53;34.17;;;7.03;;
82900;SDS011;72673;50.822;3.280;2024-03-25T03:09:19;28.20;;;6.43;;
82900;SDS011;72673;50.822;3.280;2024-03-25T03:11:44;28.95;;;6.60;;
82900;SDS011;72673;50.822;3.280;2024-03-25T03:14:11;25.52;;;6.82;;
82900;SDS011;72673;50.822;3.280;2024-03-25T03:16:37;28.08;;;6.55;;
82900;SDS011;72673;50.822;3.280;2024-03-25T03:19:02;33.22;;;7.68;;
82900;SDS011;72673;50.822;3.280;2024-03-25T03:21:28;32.17;;;7.00;;
82900;SDS011;72673;50.822;3.280;2024-03-25T03:23:55;28.70;;;7.30;;
82900;SDS011;72673;50.822;3.280;2024-03-25T03:26:21;27.02;;;6.68;;
82900;SDS011;72673;50.822;3.280;2024-03-25T03:28:51;30.95;;;7.00;;
82900;SDS011;72673;50.822;3.280;2024-03-25T03:31:20;27.43;;;6.73;;
82900;SDS011;72673;50.822;3.280;2024-03-25T03:33:49;34.53;;;7.43;;
82900;SDS011;72673;50.822;3.280;2024-03-25T03:36:15;27.00;;;6.70;;
82900;SDS011;72673;50.822;3.280;2024-03-25T03:38:42;28.27;;;6.65;;
82900;SDS011;72673;50.822;3.280;2024-03-25T03:41:08;28.25;;;7.47;;
82900;SDS011;72673;50.822;3.280;2024-03-25T03:43:33;27.58;;;7.20;;
82900;SDS011;72673;50.822;3.280;2024-03-25T03:45:59;37.25;;;7.25;;
82900;SDS011;72673;50.822;3.280;2024-03-25T03:48:25;28.70;;;7.38;;
82900;SDS011;72673;50.822;3.280;2024-03-25T03:50:51;31.80;;;7.68;;
82900;SDS011;72673;50.822;3.280;2024-03-25T03:53:16;38.85;;;8.00;;
82900;SDS011;72673;50.822;3.280;2024-03-25T03:55:42;28.40;;;7.38;;
82900;SDS011;72673;50.822;3.280;2024-03-25T03:58:07;35.95;;;7.35;;
82900;SDS011;72673;50.822;3.280;2024-03-25T04:00:34;30.67;;;7.55;;
82900;SDS011;72673;50.822;3.280;2024-03-25T04:03:00;31.38;;;8.25;;
82900;SDS011;72673;50.822;3.280;2024-03-25T04:05:29;28.40;;;7.50;;
82900;SDS011;72673;50.822;3.280;2024-03-25T04:07:55;36.08;;;7.45;;
82900;SDS011;72673;50.822;3.280;2024-03-25T04:10:22;28.45;;;7.95;;
82900;SDS011;72673;50.822;3.280;2024-03-25T04:12:48;28.60;;;7.55;;
82900;SDS011;72673;50.822;3.280;2024-03-25T04:15:13;36.30;;;8.45;;
82900;SDS011;72673;50.822;3.280;2024-03-25T04:17:45;32.65;;;7.97;;
82900;SDS011;72673;50.822;3.280;2024-03-25T04:20:12;27.23;;;8.63;;
82900;SDS011;72673;50.822;3.280;2024-03-25T04:22:44;38.05;;;8.60;;
82900;SDS011;72673;50.822;3.280;2024-03-25T04:25:11;29.67;;;9.15;;
82900;SDS011;72673;50.822;3.280;2024-03-25T04:27:40;38.22;;;9.30;;
82900;SDS011;72673;50.822;3.280;2024-03-25T04:30:06;51.75;;;10.93;;
82900;SDS011;72673;50.822;3.280;2024-03-25T04:32:33;45.53;;;10.07;;
82900;SDS011;72673;50.822;3.280;2024-03-25T04:34:59;35.78;;;9.02;;
82900;SDS011;72673;50.822;3.280;2024-03-25T04:37:25;41.63;;;9.40;;
82900;SDS011;72673;50.822;3.280;2024-03-25T04:39:53;47.88;;;9.68;;
82900;SDS011;72673;50.822;3.280;2024-03-25T04:42:19;60.13;;;9.75;;
82900;SDS011;72673;50.822;3.280;2024-03-25T04:44:46;42.88;;;9.75;;
82900;SDS011;72673;50.822;3.280;2024-03-25T04:47:12;75.20;;;10.00;;
82900;SDS011;72673;50.822;3.280;2024-03-25T04:49:38;60.25;;;10.18;;
82900;SDS011;72673;50.822;3.280;2024-03-25T04:52:04;37.15;;;9.73;;
82900;SDS011;72673;50.822;3.280;2024-03-25T04:54:30;46.70;;;11.00;;
82900;SDS011;72673;50.822;3.280;2024-03-25T04:56:55;45.03;;;10.07;;
82900;SDS011;72673;50.822;3.280;2024-03-25T04:59:21;45.60;;;10.38;;
82900;SDS011;72673;50.822;3.280;2024-03-25T05:01:47;33.65;;;9.30;;
82900;SDS011;72673;50.822;3.280;2024-03-25T05:04:12;37.00;;;10.13;;
82900;SDS011;72673;50.822;3.280;2024-03-25T05:06:38;51.25;;;9.77;;
82900;SDS011;72673;50.822;3.280;2024-03-25T05:09:04;68.82;;;9.35;;
82900;SDS011;72673;50.822;3.280;2024-03-25T05:11:31;50.65;;;8.93;;
82900;SDS011;72673;50.822;3.280;2024-03-25T05:13:57;47.97;;;8.27;;
82900;SDS011;72673;50.822;3.280;2024-03-25T05:16:22;71.88;;;9.45;;
82900;SDS011;72673;50.822;3.280;2024-03-25T05:18:48;33.85;;;8.40;;
82900;SDS011;72673;50.822;3.280;2024-03-25T05:21:14;46.05;;;8.88;;
82900;SDS011;72673;50.822;3.280;2024-03-25T05:23:39;55.47;;;9.65;;
82900;SDS011;72673;50.822;3.280;2024-03-25T05:26:05;62.55;;;10.25;;
82900;SDS011;72673;50.822;3.280;2024-03-25T05:28:31;59.85;;;11.02;;
82900;SDS011;72673;50.822;3.280;2024-03-25T05:30:56;32.78;;;10.50;;
82900;SDS011;72673;50.822;3.280;2024-03-25T05:33:22;32.92;;;10.60;;
82900;SDS011;72673;50.822;3.280;2024-03-25T05:35:48;25.95;;;9.02;;
82900;SDS011;72673;50.822;3.280;2024-03-25T05:38:13;32.63;;;10.15;;
82900;SDS011;72673;50.822;3.280;2024-03-25T05:40:39;35.13;;;10.52;;
82900;SDS011;72673;50.822;3.280;2024-03-25T05:43:04;29.30;;;10.48;;
82900;SDS011;72673;50.822;3.280;2024-03-25T05:45:30;35.85;;;11.70;;
82900;SDS011;72673;50.822;3.280;2024-03-25T05:47:56;40.30;;;11.23;;
82900;SDS011;72673;50.822;3.280;2024-03-25T05:50:21;40.28;;;11.23;;
82900;SDS011;72673;50.822;3.280;2024-03-25T05:52:47;36.20;;;11.23;;
82900;SDS011;72673;50.822;3.280;2024-03-25T05:55:12;35.35;;;10.45;;
82900;SDS011;72673;50.822;3.280;2024-03-25T05:57:38;44.42;;;10.63;;
82900;SDS011;72673;50.822;3.280;2024-03-25T06:00:04;38.25;;;11.07;;
82900;SDS011;72673;50.822;3.280;2024-03-25T06:02:32;44.00;;;12.48;;
82900;SDS011;72673;50.822;3.280;2024-03-25T06:04:58;40.38;;;12.73;;
82900;SDS011;72673;50.822;3.280;2024-03-25T06:07:24;47.35;;;12.82;;
82900;SDS011;72673;50.822;3.280;2024-03-25T06:09:49;37.25;;;12.60;;
82900;SDS011;72673;50.822;3.280;2024-03-25T06:12:15;49.13;;;13.85;;
82900;SDS011;72673;50.822;3.280;2024-03-25T06:14:40;56.45;;;15.65;;
82900;SDS011;72673;50.822;3.280;2024-03-25T06:17:06;47.30;;;14.23;;
82900;SDS011;72673;50.822;3.280;2024-03-25T06:19:31;52.15;;;15.60;;
82900;SDS011;72673;50.822;3.280;2024-03-25T06:21:57;37.70;;;13.45;;
82900;SDS011;72673;50.822;3.280;2024-03-25T06:24:23;45.10;;;12.77;;
82900;SDS011;72673;50.822;3.280;2024-03-25T06:26:49;46.58;;;13.65;;
82900;SDS011;72673;50.822;3.280;2024-03-25T06:29:14;46.70;;;14.43;;
82900;SDS011;72673;50.822;3.280;2024-03-25T06:31:40;43.67;;;14.75;;
82900;SDS011;72673;50.822;3.280;2024-03-25T06:34:24;43.30;;;12.75;;
82900;SDS011;72673;50.822;3.280;2024-03-25T06:36:50;30.25;;;10.02;;
82900;SDS011;72673;50.822;3.280;2024-03-25T06:39:15;29.48;;;8.98;;
82900;SDS011;72673;50.822;3.280;2024-03-25T06:41:41;28.77;;;8.32;;
82900;SDS011;72673;50.822;3.280;2024-03-25T06:44:07;31.10;;;8.43;;
82900;SDS011;72673;50.822;3.280;2024-03-25T06:46:33;33.70;;;8.43;;
82900;SDS011;72673;50.822;3.280;2024-03-25T06:48:59;34.15;;;9.85;;
82900;SDS011;72673;50.822;3.280;2024-03-25T06:51:25;47.92;;;13.18;;
82900;SDS011;72673;50.822;3.280;2024-03-25T06:53:51;60.35;;;15.32;;
82900;SDS011;72673;50.822;3.280;2024-03-25T06:56:17;51.35;;;16.20;;
82900;SDS011;72673;50.822;3.280;2024-03-25T06:58:43;62.80;;;17.17;;
82900;SDS011;72673;50.822;3.280;2024-03-25T07:01:09;70.38;;;16.85;;
82900;SDS011;72673;50.822;3.280;2024-03-25T07:03:37;60.30;;;17.90;;
82900;SDS011;72673;50.822;3.280;2024-03-25T07:06:03;54.45;;;16.85;;
82900;SDS011;72673;50.822;3.280;2024-03-25T07:08:30;64.97;;;16.48;;
82900;SDS011;72673;50.822;3.280;2024-03-25T07:10:56;62.50;;;16.02;;
82900;SDS011;72673;50.822;3.280;2024-03-25T07:13:22;70.18;;;16.45;;
82900;SDS011;72673;50.822;3.280;2024-03-25T07:15:48;68.45;;;16.73;;
82900;SDS011;72673;50.822;3.280;2024-03-25T07:18:14;58.30;;;16.52;;
82900;SDS011;72673;50.822;3.280;2024-03-25T07:20:40;66.00;;;17.35;;
82900;SDS011;72673;50.822;3.280;2024-03-25T07:23:06;62.92;;;16.40;;
82900;SDS011;72673;50.822;3.280;2024-03-25T07:25:32;65.40;;;17.58;;
82900;SDS011;72673;50.822;3.280;2024-03-25T07:27:58;65.15;;;16.23;;
82900;SDS011;72673;50.822;3.280;2024-03-25T07:30:24;65.22;;;16.35;;
82900;SDS011;72673;50.822;3.280;2024-03-25T07:32:53;62.50;;;16.05;;
82900;SDS011;72673;50.822;3.280;2024-03-25T07:35:19;56.05;;;15.93;;
82900;SDS011;72673;50.822;3.280;2024-03-25T07:37:45;57.45;;;15.27;;
82900;SDS011;72673;50.822;3.280;2024-03-25T07:40:11;43.30;;;13.60;;
82900;SDS011;72673;50.822;3.280;2024-03-25T07:42:37;64.80;;;15.18;;
82900;SDS011;72673;50.822;3.280;2024-03-25T07:45:04;50.60;;;15.57;;
82900;SDS011;72673;50.822;3.280;2024-03-25T07:47:31;53.53;;;15.40;;
82900;SDS011;72673;50.822;3.280;2024-03-25T07:49:57;60.83;;;14.85;;
82900;SDS011;72673;50.822;3.280;2024-03-25T07:52:24;45.95;;;12.73;;
82900;SDS011;72673;50.822;3.280;2024-03-25T07:54:54;39.58;;;13.57;;
82900;SDS011;72673;50.822;3.280;2024-03-25T07:57:20;43.05;;;12.07;;
82900;SDS011;72673;50.822;3.280;2024-03-25T07:59:46;36.83;;;12.73;;
82900;SDS011;72673;50.822;3.280;2024-03-25T08:02:12;46.10;;;14.38;;
82900;SDS011;72673;50.822;3.280;2024-03-25T08:04:38;44.78;;;15.00;;
82900;SDS011;72673;50.822;3.280;2024-03-25T08:07:04;51.13;;;16.10;;
82900;SDS011;72673;50.822;3.280;2024-03-25T08:09:30;57.83;;;15.50;;
82900;SDS011;72673;50.822;3.280;2024-03-25T08:11:56;62.60;;;16.90;;
82900;SDS011;72673;50.822;3.280;2024-03-25T08:14:22;67.72;;;19.08;;
82900;SDS011;72673;50.822;3.280;2024-03-25T08:16:48;49.10;;;16.02;;
82900;SDS011;72673;50.822;3.280;2024-03-25T08:19:14;62.83;;;20.75;;
82900;SDS011;72673;50.822;3.280;2024-03-25T08:21:40;60.40;;;18.83;;
82900;SDS011;72673;50.822;3.280;2024-03-25T08:24:05;74.82;;;20.92;;
82900;SDS011;72673;50.822;3.280;2024-03-25T08:26:31;66.35;;;22.17;;
82900;SDS011;72673;50.822;3.280;2024-03-25T08:28:57;70.35;;;20.80;;
82900;SDS011;72673;50.822;3.280;2024-03-25T08:31:22;57.75;;;15.35;;
82900;SDS011;72673;50.822;3.280;2024-03-25T08:33:48;32.85;;;9.38;;
82900;SDS011;72673;50.822;3.280;2024-03-25T08:36:14;33.45;;;8.43;;
82900;SDS011;72673;50.822;3.280;2024-03-25T08:38:40;21.08;;;6.60;;
82900;SDS011;72673;50.822;3.280;2024-03-25T08:41:05;17.75;;;7.18;;
82900;SDS011;72673;50.822;3.280;2024-03-25T08:43:31;15.13;;;5.30;;
82900;SDS011;72673;50.822;3.280;2024-03-25T08:45:57;13.23;;;4.28;;
82900;SDS011;72673;50.822;3.280;2024-03-25T08:48:23;22.55;;;6.43;;
82900;SDS011;72673;50.822;3.280;2024-03-25T08:50:49;18.65;;;5.45;;
82900;SDS011;72673;50.822;3.280;2024-03-25T08:53:15;20.20;;;6.18;;
82900;SDS011;72673;50.822;3.280;2024-03-25T08:55:44;15.98;;;6.45;;
82900;SDS011;72673;50.822;3.280;2024-03-25T08:58:11;21.15;;;7.05;;
82900;SDS011;72673;50.822;3.280;2024-03-25T09:00:38;19.50;;;6.38;;
82900;SDS011;72673;50.822;3.280;2024-03-25T09:03:06;22.48;;;7.00;;
82900;SDS011;72673;50.822;3.280;2024-03-25T09:05:33;21.73;;;6.15;;
82900;SDS011;72673;50.822;3.280;2024-03-25T09:07:59;24.00;;;7.20;;
82900;SDS011;72673;50.822;3.280;2024-03-25T09:10:25;32.97;;;8.20;;
82900;SDS011;72673;50.822;3.280;2024-03-25T09:13:10;23.60;;;7.18;;
82900;SDS011;72673;50.822;3.280;2024-03-25T09:15:35;20.88;;;5.88;;
82900;SDS011;72673;50.822;3.280;2024-03-25T09:18:01;26.90;;;6.90;;
82900;SDS011;72673;50.822;3.280;2024-03-25T09:20:27;25.67;;;7.50;;
82900;SDS011;72673;50.822;3.280;2024-03-25T09:22:53;26.35;;;7.18;;
82900;SDS011;72673;50.822;3.280;2024-03-25T09:25:18;28.63;;;7.45;;
82900;SDS011;72673;50.822;3.280;2024-03-25T09:27:47;24.85;;;7.35;;
82900;SDS011;72673;50.822;3.280;2024-03-25T09:30:14;18.05;;;7.15;;
82900;SDS011;72673;50.822;3.280;2024-03-25T09:32:40;23.50;;;6.28;;
82900;SDS011;72673;50.822;3.280;2024-03-25T09:35:09;21.65;;;6.93;;
82900;SDS011;72673;50.822;3.280;2024-03-25T09:37:35;29.30;;;8.02;;
82900;SDS011;72673;50.822;3.280;2024-03-25T09:40:01;25.15;;;6.45;;
82900;SDS011;72673;50.822;3.280;2024-03-25T09:42:52;24.83;;;6.68;;
82900;SDS011;72673;50.822;3.280;2024-03-25T09:45:21;17.88;;;5.72;;
82900;SDS011;72673;50.822;3.280;2024-03-25T09:47:53;19.45;;;5.68;;
82900;SDS011;72673;50.822;3.280;2024-03-25T09:50:20;20.08;;;6.20;;
82900;SDS011;72673;50.822;3.280;2024-03-25T09:52:46;17.67;;;5.47;;
82900;SDS011;72673;50.822;3.280;2024-03-25T09:55:13;27.42;;;5.45;;
82900;SDS011;72673;50.822;3.280;2024-03-25T09:57:39;19.00;;;5.72;;
82900;SDS011;72673;50.822;3.280;2024-03-25T10:00:07;26.10;;;7.47;;
82900;SDS011;72673;50.822;3.280;2024-03-25T10:02:36;17.85;;;6.82;;
82900;SDS011;72673;50.822;3.280;2024-03-25T10:05:03;21.85;;;6.88;;
82900;SDS011;72673;50.822;3.280;2024-03-25T10:07:32;18.15;;;5.80;;
82900;SDS011;72673;50.822;3.280;2024-03-25T10:09:59;23.80;;;7.03;;
82900;SDS011;72673;50.822;3.280;2024-03-25T10:12:28;27.30;;;9.95;;
82900;SDS011;72673;50.822;3.280;2024-03-25T10:14:53;32.28;;;11.63;;
82900;SDS011;72673;50.822;3.280;2024-03-25T10:17:19;25.83;;;12.95;;
82900;SDS011;72673;50.822;3.280;2024-03-25T10:19:45;34.25;;;14.18;;
82900;SDS011;72673;50.822;3.280;2024-03-25T10:22:10;28.20;;;11.85;;
82900;SDS011;72673;50.822;3.280;2024-03-25T10:24:43;22.40;;;10.25;;
82900;SDS011;72673;50.822;3.280;2024-03-25T10:27:10;21.23;;;9.88;;
82900;SDS011;72673;50.822;3.280;2024-03-25T10:29:45;16.83;;;8.43;;
82900;SDS011;72673;50.822;3.280;2024-03-25T10:32:12;15.93;;;7.85;;
82900;SDS011;72673;50.822;3.280;2024-03-25T10:34:38;27.40;;;8.80;;
82900;SDS011;72673;50.822;3.280;2024-03-25T10:37:04;14.48;;;6.68;;
82900;SDS011;72673;50.822;3.280;2024-03-25T10:39:33;20.45;;;8.57;;
82900;SDS011;72673;50.822;3.280;2024-03-25T10:42:07;23.05;;;9.00;;
82900;SDS011;72673;50.822;3.280;2024-03-25T10:44:38;14.35;;;5.65;;
82900;SDS011;72673;50.822;3.280;2024-03-25T10:47:04;14.48;;;5.38;;
82900;SDS011;72673;50.822;3.280;2024-03-25T10:52:30;14.67;;;4.40;;
82900;SDS011;72673;50.822;3.280;2024-03-25T10:54:58;14.88;;;4.57;;
82900;SDS011;72673;50.822;3.280;2024-03-25T10:57:24;14.05;;;4.45;;
82900;SDS011;72673;50.822;3.280;2024-03-25T10:59:50;15.55;;;3.83;;
82900;SDS011;72673;50.822;3.280;2024-03-25T11:02:17;11.63;;;4.25;;
82900;SDS011;72673;50.822;3.280;2024-03-25T11:04:44;13.18;;;4.20;;
82900;SDS011;72673;50.822;3.280;2024-03-25T11:07:10;11.75;;;3.60;;
82900;SDS011;72673;50.822;3.280;2024-03-25T11:09:37;10.75;;;3.50;;
82900;SDS011;72673;50.822;3.280;2024-03-25T11:12:04;14.95;;;3.67;;
82900;SDS011;72673;50.822;3.280;2024-03-25T11:14:30;10.40;;;3.47;;
82900;SDS011;72673;50.822;3.280;2024-03-25T11:16:57;6.68;;;2.28;;
82900;SDS011;72673;50.822;3.280;2024-03-25T11:19:27;10.52;;;2.90;;
82900;SDS011;72673;50.822;3.280;2024-03-25T11:22:06;11.57;;;2.70;;
82900;SDS011;72673;50.822;3.280;2024-03-25T11:24:34;8.95;;;2.45;;
82900;SDS011;72673;50.822;3.280;2024-03-25T11:27:06;7.85;;;2.63;;
82900;SDS011;72673;50.822;3.280;2024-03-25T11:29:33;7.95;;;2.40;;
82900;SDS011;72673;50.822;3.280;2024-03-25T11:32:05;8.13;;;2.78;;
82900;SDS011;72673;50.822;3.280;2024-03-25T11:34:31;7.70;;;2.60;;
82900;SDS011;72673;50.822;3.280;2024-03-25T11:36:57;7.28;;;2.30;;
82900;SDS011;72673;50.822;3.280;2024-03-25T11:39:23;8.80;;;2.75;;
82900;SDS011;72673;50.822;3.280;2024-03-25T11:41:53;12.45;;;2.30;;
82900;SDS011;72673;50.822;3.280;2024-03-25T11:44:19;7.32;;;2.15;;
82900;SDS011;72673;50.822;3.280;2024-03-25T11:46:45;6.22;;;1.90;;
82900;SDS011;72673;50.822;3.280;2024-03-25T11:49:15;9.98;;;2.17;;
82900;SDS011;72673;50.822;3.280;2024-03-25T11:51:43;10.20;;;2.10;;
82900;SDS011;72673;50.822;3.280;2024-03-25T11:54:11;10.83;;;2.20;;
82900;SDS011;72673;50.822;3.280;2024-03-25T11:56:37;7.43;;;2.15;;
82900;SDS011;72673;50.822;3.280;2024-03-25T11:59:03;6.53;;;2.22;;
82900;SDS011;72673;50.822;3.280;2024-03-25T12:01:29;4.68;;;1.88;;
82900;SDS011;72673;50.822;3.280;2024-03-25T12:03:55;7.65;;;1.75;;
82900;SDS011;72673;50.822;3.280;2024-03-25T12:06:21;9.88;;;1.92;;
82900;SDS011;72673;50.822;3.280;2024-03-25T12:08:47;7.75;;;2.30;;
82900;SDS011;72673;50.822;3.280;2024-03-25T12:11:31;6.72;;;2.08;;
82900;SDS011;72673;50.822;3.280;2024-03-25T12:13:57;6.00;;;1.80;;
82900;SDS011;72673;50.822;3.280;2024-03-25T12:16:24;6.85;;;1.92;;
82900;SDS011;72673;50.822;3.280;2024-03-25T12:18:50;8.35;;;1.92;;
82900;SDS011;72673;50.822;3.280;2024-03-25T12:21:17;13.30;;;2.20;;
82900;SDS011;72673;50.822;3.280;2024-03-25T12:23:43;8.15;;;2.35;;
82900;SDS011;72673;50.822;3.280;2024-03-25T12:26:08;8.18;;;2.38;;
82900;SDS011;72673;50.822;3.280;2024-03-25T12:28:35;8.32;;;1.95;;
82900;SDS011;72673;50.822;3.280;2024-03-25T12:31:03;8.50;;;2.15;;
82900;SDS011;72673;50.822;3.280;2024-03-25T12:33:42;8.38;;;2.75;;
82900;SDS011;72673;50.822;3.280;2024-03-25T12:36:08;4.63;;;2.17;;
82900;SDS011;72673;50.822;3.280;2024-03-25T12:38:36;7.28;;;1.85;;
82900;SDS011;72673;50.822;3.280;2024-03-25T12:41:12;9.85;;;2.20;;
82900;SDS011;72673;50.822;3.280;2024-03-25T12:43:44;6.35;;;2.10;;
82900;SDS011;72673;50.822;3.280;2024-03-25T12:46:10;7.80;;;2.22;;
82900;SDS011;72673;50.822;3.280;2024-03-25T12:48:37;8.25;;;2.00;;
82900;SDS011;72673;50.822;3.280;2024-03-25T12:51:03;7.97;;;2.20;;
82900;SDS011;72673;50.822;3.280;2024-03-25T12:53:29;13.65;;;2.13;;
82900;SDS011;72673;50.822;3.280;2024-03-25T12:55:55;8.13;;;2.20;;
82900;SDS011;72673;50.822;3.280;2024-03-25T12:58:21;4.70;;;2.05;;
82900;SDS011;72673;50.822;3.280;2024-03-25T13:00:47;7.18;;;2.10;;
82900;SDS011;72673;50.822;3.280;2024-03-25T13:03:13;7.78;;;1.95;;
82900;SDS011;72673;50.822;3.280;2024-03-25T13:05:40;6.32;;;2.03;;
82900;SDS011;72673;50.822;3.280;2024-03-25T13:08:08;10.55;;;2.20;;
82900;SDS011;72673;50.822;3.280;2024-03-25T13:10:33;5.18;;;1.85;;
82900;SDS011;72673;50.822;3.280;2024-03-25T13:13:00;8.02;;;1.80;;
82900;SDS011;72673;50.822;3.280;2024-03-25T13:15:26;5.53;;;1.70;;
82900;SDS011;72673;50.822;3.280;2024-03-25T13:17:53;5.85;;;1.80;;
82900;SDS011;72673;50.822;3.280;2024-03-25T13:20:19;4.57;;;1.45;;
82900;SDS011;72673;50.822;3.280;2024-03-25T13:22:45;4.22;;;1.38;;
82900;SDS011;72673;50.822;3.280;2024-03-25T13:25:12;7.68;;;1.73;;
82900;SDS011;72673;50.822;3.280;2024-03-25T13:27:37;4.88;;;1.10;;
82900;SDS011;72673;50.822;3.280;2024-03-25T13:30:04;6.03;;;1.63;;
82900;SDS011;72673;50.822;3.280;2024-03-25T13:32:30;5.50;;;1.60;;
82900;SDS011;72673;50.822;3.280;2024-03-25T13:34:56;4.55;;;1.55;;
82900;SDS011;72673;50.822;3.280;2024-03-25T13:37:21;6.63;;;1.40;;
82900;SDS011;72673;50.822;3.280;2024-03-25T13:39:47;4.75;;;1.20;;
82900;SDS011;72673;50.822;3.280;2024-03-25T13:42:15;6.72;;;1.55;;
82900;SDS011;72673;50.822;3.280;2024-03-25T13:44:40;7.28;;;1.42;;
82900;SDS011;72673;50.822;3.280;2024-03-25T13:47:06;7.40;;;1.52;;
82900;SDS011;72673;50.822;3.280;2024-03-25T13:49:33;3.25;;;1.30;;
82900;SDS011;72673;50.822;3.280;2024-03-25T13:51:59;5.72;;;1.33;;
82900;SDS011;72673;50.822;3.280;2024-03-25T13:54:28;10.55;;;1.35;;
82900;SDS011;72673;50.822;3.280;2024-03-25T13:56:55;7.45;;;1.58;;
82900;SDS011;72673;50.822;3.280;2024-03-25T13:59:21;7.28;;;1.52;;
82900;SDS011;72673;50.822;3.280;2024-03-25T14:01:47;6.32;;;1.50;;
82900;SDS011;72673;50.822;3.280;2024-03-25T14:04:12;5.63;;;1.50;;
82900;SDS011;72673;50.822;3.280;2024-03-25T14:06:38;2.95;;;1.13;;
82900;SDS011;72673;50.822;3.280;2024-03-25T14:09:05;3.53;;;1.23;;
82900;SDS011;72673;50.822;3.280;2024-03-25T14:11:34;4.20;;;1.53;;
82900;SDS011;72673;50.822;3.280;2024-03-25T14:14:00;3.42;;;0.90;;
82900;SDS011;72673;50.822;3.280;2024-03-25T14:16:26;4.82;;;1.20;;
82900;SDS011;72673;50.822;3.280;2024-03-25T14:18:52;8.15;;;1.63;;
82900;SDS011;72673;50.822;3.280;2024-03-25T14:21:17;4.63;;;1.35;;
82900;SDS011;72673;50.822;3.280;2024-03-25T14:23:43;3.60;;;1.52;;
82900;SDS011;72673;50.822;3.280;2024-03-25T14:26:10;6.47;;;1.30;;
82900;SDS011;72673;50.822;3.280;2024-03-25T14:28:37;7.25;;;1.20;;
82900;SDS011;72673;50.822;3.280;2024-03-25T14:31:03;3.53;;;1.17;;
82900;SDS011;72673;50.822;3.280;2024-03-25T14:33:29;4.10;;;1.35;;